createdAt,value
2023-05-20T00:02:27.928Z,98013.66
2023-05-20T00:05:01.073Z,98000.63
2023-05-20T00:07:34.147Z,98002.22
2023-05-20T00:10:08.589Z,98009.06
2023-05-20T00:12:42.989Z,98003.81
2023-05-20T00:15:17.589Z,98000.63
2023-05-20T00:17:50.795Z,98006.06
2023-05-20T00:20:23.898Z,97998.94
2023-05-20T00:22:56.978Z,97996.91
2023-05-20T00:25:31.691Z,98002.75
2023-05-20T00:28:07.504Z,97997.38
2023-05-20T00:30:41.922Z,97999.94
2023-05-20T00:33:15.037Z,97999.94
2023-05-20T00:35:48.087Z,97994.09
2023-05-20T00:38:21.187Z,98001.38
2023-05-20T00:40:54.240Z,98003.53
2023-05-20T00:43:28.993Z,98001.53
2023-05-20T00:46:02.966Z,97996.78
2023-05-20T00:48:42.372Z,97993.09
2023-05-20T00:51:15.957Z,97991.19
2023-05-20T00:53:49.184Z,97995.25
2023-05-20T00:56:22.908Z,97992.69
2023-05-20T00:58:57.571Z,97995.94
2023-05-20T01:01:30.718Z,97994.19
2023-05-20T01:04:04.437Z,97998.97
2023-05-20T01:06:38.965Z,97994.25
2023-05-20T01:09:12.087Z,97991.47
2023-05-20T01:11:52.989Z,97985.88
2023-05-20T01:14:31.320Z,97980.75
2023-05-20T01:17:11.165Z,97981.69
2023-05-20T01:19:45.683Z,97983.22
2023-05-20T01:22:18.779Z,97988.91
2023-05-20T01:24:53.904Z,97979.47
2023-05-20T01:27:27.072Z,97975.94
2023-05-20T01:30:00.323Z,97968.09
2023-05-20T01:32:38.723Z,97974.00
2023-05-20T01:35:12.397Z,97974.00
2023-05-20T01:37:46.421Z,97974.00
2023-05-20T01:40:21.206Z,97974.00
2023-05-20T01:42:55.896Z,97969.75
2023-05-20T01:45:29.050Z,97967.28
2023-05-20T01:48:03.591Z,97970.47
2023-05-20T01:50:36.659Z,97971.03
2023-05-20T01:53:09.766Z,97969.19
2023-05-20T01:55:44.206Z,97974.31
2023-05-20T01:58:17.273Z,97973.38
2023-05-20T02:00:50.520Z,97970.00
2023-05-20T02:03:23.786Z,97965.91
2023-05-20T02:05:57.051Z,97959.91
2023-05-20T02:08:30.137Z,97952.22
2023-05-20T02:11:04.597Z,97954.63
2023-05-20T02:13:37.616Z,97950.16
2023-05-20T02:16:10.775Z,97954.38
2023-05-20T02:18:44.050Z,97947.41
2023-05-20T02:21:17.150Z,97951.75
2023-05-20T02:23:50.425Z,97951.91
2023-05-20T02:26:25.266Z,97956.22
2023-05-20T02:28:58.335Z,97951.75
2023-05-20T02:31:31.446Z,97954.75
2023-05-20T02:34:05.042Z,97960.69
2023-05-20T02:36:38.193Z,97962.44
2023-05-20T02:39:11.586Z,97959.09
2023-05-20T02:41:45.976Z,97954.56
2023-05-20T02:44:19.095Z,97957.44
2023-05-20T02:46:52.191Z,97954.94
2023-05-20T02:49:25.405Z,97951.50
2023-05-20T02:51:58.477Z,97947.19
2023-05-20T02:54:31.488Z,97951.75
2023-05-20T02:57:06.424Z,97963.69
2023-05-20T02:59:39.628Z,97963.28
2023-05-20T03:02:12.694Z,97962.38
2023-05-20T03:04:47.339Z,97964.78
2023-05-20T03:07:21.646Z,97961.34
2023-05-20T03:09:54.837Z,97963.84
2023-05-20T03:12:29.259Z,97955.28
2023-05-20T03:15:02.305Z,97957.66
2023-05-20T03:17:35.752Z,97951.09
2023-05-20T03:20:10.742Z,97955.28
2023-05-20T03:22:43.823Z,97941.72
2023-05-20T03:25:16.900Z,97944.38
2023-05-20T03:27:51.524Z,97944.22
2023-05-20T03:30:25.126Z,97947.50
2023-05-20T03:32:58.729Z,97950.88
2023-05-20T03:35:32.046Z,97952.53
2023-05-20T03:38:05.371Z,97943.75
2023-05-20T03:40:38.471Z,97950.25
2023-05-20T03:43:12.875Z,97955.44
2023-05-20T03:45:46.081Z,97957.84
2023-05-20T03:48:20.159Z,97955.66
2023-05-20T03:50:53.257Z,97955.78
2023-05-20T03:53:26.470Z,97959.09
2023-05-20T03:55:59.560Z,97955.66
2023-05-20T03:58:34.005Z,97956.75
2023-05-20T04:01:07.122Z,97953.38
2023-05-20T04:03:42.304Z,97956.19
2023-05-20T04:06:16.023Z,97952.31
2023-05-20T04:08:49.136Z,97953.97
2023-05-20T04:11:22.469Z,97950.78
2023-05-20T04:13:56.889Z,97956.88
2023-05-20T04:16:30.500Z,97960.56
2023-05-20T04:19:03.591Z,97963.34
2023-05-20T04:21:36.700Z,97960.94
2023-05-20T04:24:09.743Z,97958.84
2023-05-20T04:26:43.163Z,97958.41
2023-05-20T04:29:18.858Z,97957.84
2023-05-20T04:31:52.169Z,97959.03
2023-05-20T04:34:26.944Z,97960.25
2023-05-20T04:37:00.371Z,97956.19
2023-05-20T04:39:33.423Z,97951.06
2023-05-20T04:42:07.189Z,97958.28
2023-05-20T04:44:42.419Z,97962.13
2023-05-20T04:47:15.730Z,97964.19
2023-05-20T04:49:50.310Z,97962.50
2023-05-20T04:52:23.582Z,97963.03
2023-05-20T04:54:58.236Z,97955.00
2023-05-20T04:57:31.323Z,97957.09
2023-05-20T05:00:08.014Z,97951.03
2023-05-20T05:02:41.465Z,97964.00
2023-05-20T05:05:14.645Z,97949.19
2023-05-20T05:07:47.689Z,97950.47
2023-05-20T05:10:21.956Z,97950.38
2023-05-20T05:12:55.042Z,97943.06
2023-05-20T05:15:29.921Z,97947.13
2023-05-20T05:18:03.364Z,97936.38
2023-05-20T05:20:36.506Z,97929.53
2023-05-20T05:23:09.713Z,97933.69
2023-05-20T05:25:42.855Z,97923.75
2023-05-20T05:28:16.000Z,97920.75
2023-05-20T05:30:50.721Z,97924.66
2023-05-20T05:33:23.859Z,97926.41
2023-05-20T05:35:59.099Z,97922.09
2023-05-20T05:38:32.502Z,97918.22
2023-05-20T05:41:05.643Z,97914.41
2023-05-20T05:43:39.102Z,97908.72
2023-05-20T05:46:13.700Z,97908.72
2023-05-20T05:48:49.213Z,97916.50
2023-05-20T05:51:22.532Z,97910.59
2023-05-20T05:53:56.146Z,97912.03
2023-05-20T05:56:29.240Z,97900.13
2023-05-20T05:59:02.494Z,97907.94
2023-05-20T06:01:37.474Z,97903.03
2023-05-20T06:04:10.833Z,97902.28
2023-05-20T06:06:44.075Z,97899.72
2023-05-20T06:09:17.203Z,97896.00
2023-05-20T06:11:50.493Z,97886.00
2023-05-20T06:14:23.984Z,97890.66
2023-05-20T06:16:58.643Z,97879.91
2023-05-20T06:19:31.889Z,97885.59
2023-05-20T06:22:05.643Z,97883.34
2023-05-20T06:24:38.842Z,97882.81
2023-05-20T06:27:12.207Z,97892.19
2023-05-20T06:29:45.368Z,97885.28
2023-05-20T06:32:19.927Z,97880.22
2023-05-20T06:34:53.089Z,97882.50
2023-05-20T06:37:26.323Z,97864.06
2023-05-20T06:39:59.517Z,97860.88
2023-05-20T06:42:32.638Z,97876.81
2023-05-20T06:45:06.950Z,97881.69
2023-05-20T06:47:41.430Z,97881.78
2023-05-20T06:50:14.655Z,97878.31
2023-05-20T06:52:47.759Z,97876.59
2023-05-20T06:55:21.096Z,97876.34
2023-05-20T06:57:55.274Z,97886.19
2023-05-20T07:00:28.303Z,97883.50
2023-05-20T07:03:02.851Z,97880.03
2023-05-20T07:05:38.701Z,97870.03
2023-05-20T07:08:12.298Z,97868.69
2023-05-20T07:10:46.536Z,97870.34
2023-05-20T07:13:19.884Z,97865.78
2023-05-20T07:15:53.216Z,97868.06
2023-05-20T07:18:28.472Z,97867.13
2023-05-20T07:21:01.513Z,97863.22
2023-05-20T07:23:34.599Z,97859.69
2023-05-20T07:26:07.719Z,97861.31
2023-05-20T07:28:40.872Z,97853.63
2023-05-20T07:31:14.432Z,97856.31
2023-05-20T07:33:48.794Z,97854.28
2023-05-20T07:36:21.891Z,97851.22
2023-05-20T07:39:02.474Z,97853.59
2023-05-20T07:41:37.411Z,97850.28
2023-05-20T07:44:11.281Z,97841.09
2023-05-20T07:46:44.568Z,97848.75
2023-05-20T07:49:18.998Z,97845.56
2023-05-20T07:51:52.107Z,97831.78
2023-05-20T07:54:25.288Z,97830.63
2023-05-20T07:57:00.269Z,97818.13
2023-05-20T07:59:33.284Z,97819.00
2023-05-20T08:02:07.080Z,97810.34
2023-05-20T08:04:41.553Z,97811.81
2023-05-20T08:07:14.578Z,97818.63
2023-05-20T08:09:47.628Z,97817.81
2023-05-20T08:12:20.807Z,97815.66
2023-05-20T08:14:55.487Z,97808.09
2023-05-20T08:17:28.555Z,97826.13
2023-05-20T08:20:03.305Z,97834.56
2023-05-20T08:22:37.568Z,97817.06
2023-05-20T08:25:11.445Z,97811.59
2023-05-20T08:27:44.598Z,97825.16
2023-05-20T08:30:17.669Z,97817.94
2023-05-20T08:32:50.839Z,97831.00
2023-05-20T08:35:25.694Z,97817.63
2023-05-20T08:37:58.891Z,97816.56
2023-05-20T08:40:32.051Z,97812.28
2023-05-20T08:43:06.011Z,97807.06
2023-05-20T08:45:40.153Z,97813.28
2023-05-20T08:48:13.776Z,97823.91
2023-05-20T08:50:52.866Z,97811.84
2023-05-20T08:53:26.671Z,97814.59
2023-05-20T08:56:02.787Z,97829.13
2023-05-20T08:58:36.008Z,97825.28
2023-05-20T09:01:09.518Z,97814.56
2023-05-20T09:03:43.514Z,97815.41
2023-05-20T09:06:20.153Z,97806.72
2023-05-20T09:08:53.265Z,97815.84
2023-05-20T09:11:27.275Z,97813.88
2023-05-20T09:14:00.337Z,97815.84
2023-05-20T09:16:33.418Z,97805.13
2023-05-20T09:19:09.806Z,97800.13
2023-05-20T09:21:44.310Z,97793.09
2023-05-20T09:24:24.071Z,97806.25
2023-05-20T09:26:57.715Z,97800.75
2023-05-20T09:29:35.030Z,97793.53
2023-05-20T09:32:08.834Z,97787.03
2023-05-20T09:34:43.043Z,97787.59
2023-05-20T09:37:20.402Z,97789.69
2023-05-20T09:39:59.548Z,97791.03
2023-05-20T09:42:41.556Z,97788.72
2023-05-20T09:45:14.615Z,97777.84
2023-05-20T09:47:48.282Z,97780.66
2023-05-20T09:50:23.351Z,97785.59
2023-05-20T09:52:57.788Z,97793.25
2023-05-20T09:55:32.008Z,97784.63
2023-05-20T09:58:05.213Z,97777.47
2023-05-20T10:00:38.455Z,97774.06
2023-05-20T10:03:11.743Z,97767.06
2023-05-20T10:05:56.475Z,97763.13
2023-05-20T10:08:51.428Z,97753.16
2023-05-20T10:11:34.258Z,97749.75
2023-05-20T10:14:27.484Z,97741.66
2023-05-20T10:17:10.828Z,97735.97
2023-05-20T10:19:44.884Z,97735.41
2023-05-20T10:22:29.102Z,97743.00
2023-05-20T10:25:11.067Z,97743.19
2023-05-20T10:27:45.541Z,97745.03
2023-05-20T10:30:21.233Z,97738.16
2023-05-20T10:32:57.438Z,97741.03
2023-05-20T10:35:30.887Z,97739.22
2023-05-20T10:38:13.001Z,97724.84
2023-05-20T10:40:47.396Z,97727.59
2023-05-20T10:43:28.865Z,97716.56
2023-05-20T10:46:04.855Z,97726.25
2023-05-20T10:48:44.262Z,97721.84
2023-05-20T10:51:17.979Z,97713.91
2023-05-20T10:53:56.133Z,97711.41
2023-05-20T10:56:30.727Z,97708.53
2023-05-20T10:59:04.023Z,97714.41
2023-05-20T11:01:37.159Z,97700.56
2023-05-20T11:04:12.226Z,97702.59
2023-05-20T11:06:53.627Z,97697.31
2023-05-20T11:09:26.743Z,97703.44
2023-05-20T11:12:01.729Z,97704.44
2023-05-20T11:14:36.507Z,97704.53
2023-05-20T11:17:09.716Z,97698.19
2023-05-20T11:19:43.050Z,97682.84
2023-05-20T11:22:16.655Z,97684.63
2023-05-20T11:24:49.745Z,97680.28
2023-05-20T11:27:24.103Z,97678.31
2023-05-20T11:29:57.558Z,97673.91
2023-05-20T11:32:30.738Z,97667.94
2023-05-20T11:35:04.908Z,97676.53
2023-05-20T11:37:37.903Z,97687.13
2023-05-20T11:40:13.268Z,97672.22
2023-05-20T11:42:47.732Z,97665.28
2023-05-20T11:45:20.767Z,97657.53
2023-05-20T11:48:01.874Z,97657.75
2023-05-20T11:50:39.381Z,97658.44
2023-05-20T11:53:17.858Z,97655.88
2023-05-20T11:55:52.732Z,97655.94
2023-05-20T11:58:30.141Z,97654.22
2023-05-20T12:01:17.925Z,97652.38
2023-05-20T12:03:55.366Z,97657.66
2023-05-20T12:06:29.394Z,97656.88
2023-05-20T12:09:06.881Z,97652.59
2023-05-20T12:11:42.192Z,97652.72
2023-05-20T12:14:16.829Z,97653.53
2023-05-20T12:16:49.867Z,97648.28
2023-05-20T12:19:22.942Z,97647.38
2023-05-20T12:21:56.000Z,97650.13
2023-05-20T12:24:29.033Z,97642.28
2023-05-20T12:27:04.066Z,97646.66
2023-05-20T12:29:38.401Z,97637.84
2023-05-20T12:32:11.416Z,97637.00
2023-05-20T12:34:44.429Z,97632.63
2023-05-20T12:37:17.589Z,97636.97
2023-05-20T12:39:50.642Z,97641.41
2023-05-20T12:42:23.633Z,97652.72
2023-05-20T12:44:57.961Z,97638.81
2023-05-20T12:47:31.162Z,97638.81
2023-05-20T12:50:05.114Z,97643.16
2023-05-20T12:52:38.116Z,97642.28
2023-05-20T12:55:13.816Z,97644.03
2023-05-20T12:57:48.754Z,97631.84
2023-05-20T13:00:23.191Z,97632.72
2023-05-20T13:02:56.346Z,97631.84
2023-05-20T13:05:29.461Z,97643.13
2023-05-20T13:08:02.493Z,97645.69
2023-05-20T13:10:35.937Z,97635.25
2023-05-20T13:13:09.266Z,97621.41
2023-05-20T13:15:43.607Z,97627.50
2023-05-20T13:18:17.340Z,97628.34
2023-05-20T13:20:50.520Z,97616.16
2023-05-20T13:23:23.555Z,97617.03
2023-05-20T13:25:56.598Z,97613.53
2023-05-20T13:28:29.629Z,97616.16
2023-05-20T13:31:07.849Z,97617.91
2023-05-20T13:33:40.925Z,97612.66
2023-05-20T13:36:14.911Z,97612.63
2023-05-20T13:38:47.916Z,97596.94
2023-05-20T13:41:21.042Z,97589.97
2023-05-20T13:43:54.559Z,97589.97
2023-05-20T13:46:28.966Z,97590.00
2023-05-20T13:49:02.085Z,97599.63
2023-05-20T13:51:35.115Z,97589.22
2023-05-20T13:54:08.156Z,97593.53
2023-05-20T13:56:41.274Z,97593.56
2023-05-20T13:59:14.319Z,97592.66
2023-05-20T14:01:48.703Z,97590.06
2023-05-20T14:04:22.255Z,97591.81
2023-05-20T14:06:55.655Z,97576.16
2023-05-20T14:09:28.700Z,97585.72
2023-05-20T14:12:01.926Z,97567.41
2023-05-20T14:14:35.315Z,97560.44
2023-05-20T14:17:09.750Z,97557.78
2023-05-20T14:19:43.277Z,97558.69
2023-05-20T14:22:16.368Z,97553.44
2023-05-20T14:24:49.400Z,97549.97
2023-05-20T14:27:22.443Z,97550.81
2023-05-20T14:29:55.450Z,97548.19
2023-05-20T14:32:30.093Z,97556.84
2023-05-20T14:35:03.342Z,97542.06
2023-05-20T14:37:36.364Z,97542.97
2023-05-20T14:40:10.796Z,97536.06
2023-05-20T14:42:43.888Z,97535.22
2023-05-20T14:45:17.094Z,97528.22
2023-05-20T14:47:51.676Z,97521.28
2023-05-20T14:50:24.814Z,97522.16
2023-05-20T14:52:57.826Z,97522.16
2023-05-20T14:55:30.882Z,97517.84
2023-05-20T14:58:04.016Z,97530.88
2023-05-20T15:00:37.304Z,97523.03
2023-05-20T15:03:12.576Z,97527.34
2023-05-20T15:05:45.824Z,97525.69
2023-05-20T15:08:19.166Z,97528.28
2023-05-20T15:10:52.205Z,97528.28
2023-05-20T15:13:25.249Z,97530.00
2023-05-20T15:15:58.346Z,97526.50
2023-05-20T15:18:32.763Z,97543.94
2023-05-20T15:21:06.577Z,97534.38
2023-05-20T15:23:39.635Z,97522.19
2023-05-20T15:26:12.894Z,97514.34
2023-05-20T15:28:46.119Z,97518.69
2023-05-20T15:31:19.514Z,97522.13
2023-05-20T15:33:54.018Z,97510.88
2023-05-20T15:36:27.164Z,97509.94
2023-05-20T15:39:00.242Z,97510.84
2023-05-20T15:41:33.823Z,97518.66
2023-05-20T15:44:06.881Z,97526.47
2023-05-20T15:46:39.995Z,97529.97
2023-05-20T15:49:14.472Z,97529.13
2023-05-20T15:51:59.121Z,97530.00
2023-05-20T15:54:35.782Z,97520.41
2023-05-20T15:57:08.834Z,97527.34
2023-05-20T15:59:41.870Z,97529.94
2023-05-20T16:02:14.982Z,97521.22
2023-05-20T16:04:49.459Z,97518.59
2023-05-20T16:07:22.471Z,97513.41
2023-05-20T16:09:55.678Z,97516.84
2023-05-20T16:12:28.821Z,97509.06
2023-05-20T16:15:02.136Z,97505.63
2023-05-20T16:17:35.242Z,97510.88
2023-05-20T16:20:10.983Z,97509.94
2023-05-20T16:22:44.047Z,97506.50
2023-05-20T16:25:17.263Z,97502.13
2023-05-20T16:27:50.425Z,97497.81
2023-05-20T16:30:23.453Z,97502.09
2023-05-20T16:32:56.625Z,97502.97
2023-05-20T16:35:31.069Z,97502.97
2023-05-20T16:38:04.199Z,97498.56
2023-05-20T16:40:37.244Z,97500.28
2023-05-20T16:43:10.397Z,97514.25
2023-05-20T16:45:43.627Z,97511.63
2023-05-20T16:48:16.780Z,97512.50
2023-05-20T16:50:51.266Z,97510.75
2023-05-20T16:53:24.409Z,97513.38
2023-05-20T16:55:57.479Z,97511.69
2023-05-20T16:58:31.118Z,97509.03
2023-05-20T17:01:04.421Z,97521.19
2023-05-20T17:03:37.575Z,97515.97
2023-05-20T17:06:12.475Z,97516.91
2023-05-20T17:08:45.512Z,97513.34
2023-05-20T17:11:18.699Z,97515.19
2023-05-20T17:13:51.823Z,97513.41
2023-05-20T17:16:24.941Z,97507.34
2023-05-20T17:18:58.729Z,97516.94
2023-05-20T17:21:34.595Z,97516.91
2023-05-20T17:24:08.222Z,97528.28
2023-05-20T17:26:41.397Z,97530.00
2023-05-20T17:29:14.435Z,97529.16
2023-05-20T17:31:47.869Z,97534.38
2023-05-20T17:34:23.894Z,97530.03
2023-05-20T17:37:04.421Z,97532.63
2023-05-20T17:39:37.430Z,97541.34
2023-05-20T17:42:10.907Z,97539.56
2023-05-20T17:44:43.978Z,97547.41
2023-05-20T17:47:17.183Z,97554.34
2023-05-20T17:49:50.616Z,97550.88
2023-05-20T17:52:25.217Z,97550.88
2023-05-20T17:54:58.288Z,97550.00
2023-05-20T17:57:31.299Z,97554.34
2023-05-20T18:00:06.526Z,97560.41
2023-05-20T18:02:39.721Z,97552.59
2023-05-20T18:05:13.645Z,97554.28
2023-05-20T18:07:48.016Z,97559.50
2023-05-20T18:10:21.087Z,97557.72
2023-05-20T18:12:54.086Z,97561.97
2023-05-20T18:15:27.090Z,97561.09
2023-05-20T18:18:00.508Z,97551.50
2023-05-20T18:20:33.699Z,97553.22
2023-05-20T18:23:08.150Z,97555.81
2023-05-20T18:25:42.735Z,97560.19
2023-05-20T18:28:21.089Z,97550.56
2023-05-20T18:30:55.514Z,97551.44
2023-05-20T18:33:28.583Z,97549.59
2023-05-20T18:36:01.811Z,97553.94
2023-05-20T18:38:37.075Z,97551.28
2023-05-20T18:41:11.178Z,97556.44
2023-05-20T18:43:44.167Z,97556.41
2023-05-20T18:46:18.157Z,97552.78
2023-05-20T18:48:51.281Z,97556.22
2023-05-20T18:51:25.741Z,97558.03
2023-05-20T18:54:00.554Z,97554.47
2023-05-20T18:56:34.046Z,97556.19
2023-05-20T18:59:07.606Z,97559.53
2023-05-20T19:01:41.329Z,97560.31
2023-05-20T19:04:14.382Z,97562.03
2023-05-20T19:06:48.090Z,97555.91
2023-05-20T19:09:22.621Z,97560.25
2023-05-20T19:11:58.890Z,97565.28
2023-05-20T19:14:32.004Z,97571.41
2023-05-20T19:17:05.441Z,97573.00
2023-05-20T19:19:38.612Z,97572.91
2023-05-20T19:22:11.697Z,97578.03
2023-05-20T19:24:46.076Z,97586.69
2023-05-20T19:27:19.128Z,97586.63
2023-05-20T19:29:52.177Z,97584.84
2023-05-20T19:32:25.392Z,97593.41
2023-05-20T19:34:58.438Z,97596.91
2023-05-20T19:37:32.429Z,97593.28
2023-05-20T19:40:09.119Z,97601.03
2023-05-20T19:42:42.135Z,97596.94
2023-05-20T19:45:15.433Z,97590.59
2023-05-20T19:47:48.592Z,97592.19
2023-05-20T19:50:21.843Z,97595.53
2023-05-20T19:52:54.880Z,97592.78
2023-05-20T19:55:29.290Z,97585.81
2023-05-20T19:58:02.319Z,97595.28
2023-05-20T20:00:36.164Z,97598.66
2023-05-20T20:03:09.623Z,97600.28
2023-05-20T20:05:43.241Z,97602.84
2023-05-20T20:08:17.016Z,97604.41
2023-05-20T20:10:51.468Z,97605.09
2023-05-20T20:13:24.702Z,97601.47
2023-05-20T20:15:58.731Z,97600.47
2023-05-20T20:18:32.961Z,97588.09
2023-05-20T20:21:06.483Z,97596.63
2023-05-20T20:23:40.254Z,97594.78
2023-05-20T20:26:15.987Z,97604.22
2023-05-20T20:28:49.094Z,97604.16
2023-05-20T20:31:22.318Z,97598.88
2023-05-20T20:33:55.449Z,97592.56
2023-05-20T20:36:32.185Z,97598.41
2023-05-20T20:39:05.442Z,97600.81
2023-05-20T20:41:39.846Z,97598.88
2023-05-20T20:44:16.685Z,97597.03
2023-05-20T20:46:51.391Z,97604.41
2023-05-20T20:49:25.796Z,97597.22
2023-05-20T20:52:01.131Z,97599.84
2023-05-20T20:54:34.203Z,97596.28
2023-05-20T20:57:09.107Z,97593.63
2023-05-20T20:59:47.514Z,97590.84
2023-05-20T21:02:20.788Z,97591.69
2023-05-20T21:05:02.000Z,97598.50
2023-05-20T21:07:39.091Z,97591.47
2023-05-20T21:10:17.838Z,97593.00
2023-05-20T21:12:57.296Z,97595.53
2023-05-20T21:15:30.375Z,97586.25
2023-05-20T21:18:03.587Z,97587.75
2023-05-20T21:20:36.641Z,97580.31
2023-05-20T21:23:09.704Z,97586.09
2023-05-20T21:25:43.994Z,97592.69
2023-05-20T21:28:18.578Z,97577.03
2023-05-20T21:30:51.701Z,97590.94
2023-05-20T21:33:24.772Z,97577.13
2023-05-20T21:35:58.421Z,97589.78
2023-05-20T21:38:31.557Z,97587.84
2023-05-20T21:41:04.673Z,97581.59
2023-05-20T21:43:39.222Z,97582.22
2023-05-20T21:46:13.379Z,97582.16
2023-05-20T21:48:46.542Z,97571.78
2023-05-20T21:51:19.624Z,97578.56
2023-05-20T21:53:52.690Z,97582.66
2023-05-20T21:56:26.359Z,97575.03
2023-05-20T21:59:00.747Z,97573.97
2023-05-20T22:01:34.017Z,97570.28
2023-05-20T22:04:07.767Z,97561.78
2023-05-20T22:06:41.082Z,97574.66
2023-05-20T22:09:14.283Z,97564.47
2023-05-20T22:11:48.085Z,97560.03
2023-05-20T22:14:23.558Z,97557.50
2023-05-20T22:16:58.518Z,97561.91
2023-05-20T22:19:31.664Z,97557.78
2023-05-20T22:22:05.271Z,97559.47
2023-05-20T22:24:38.298Z,97560.31
2023-05-20T22:27:11.458Z,97544.69
2023-05-20T22:29:46.202Z,97542.88
2023-05-20T22:32:19.482Z,97538.34
2023-05-20T22:34:53.490Z,97540.88
2023-05-20T22:37:28.814Z,97543.34
2023-05-20T22:40:02.238Z,97542.47
2023-05-20T22:42:35.534Z,97533.81
2023-05-20T22:45:11.671Z,97530.31
2023-05-20T22:47:44.893Z,97525.97
2023-05-20T22:50:18.189Z,97524.31
2023-05-20T22:52:51.363Z,97525.75
2023-05-20T22:55:24.857Z,97530.94
2023-05-20T22:57:57.966Z,97523.94
2023-05-20T23:00:32.331Z,97523.09
2023-05-20T23:03:05.951Z,97517.81
2023-05-20T23:05:39.125Z,97518.50
2023-05-20T23:08:12.219Z,97515.00
2023-05-20T23:10:45.300Z,97514.75
2023-05-20T23:13:18.373Z,97508.75
2023-05-20T23:15:52.842Z,97510.47
2023-05-20T23:18:25.953Z,97501.78
2023-05-20T23:20:59.449Z,97507.72
2023-05-20T23:23:32.546Z,97504.13
2023-05-20T23:26:14.546Z,97502.28
2023-05-20T23:28:47.852Z,97504.78
2023-05-20T23:31:22.657Z,97502.16
2023-05-20T23:33:57.878Z,97509.75
2023-05-20T23:36:34.575Z,97501.94
2023-05-20T23:39:07.909Z,97497.53
2023-05-20T23:41:40.956Z,97500.03
2023-05-20T23:44:22.865Z,97501.63
2023-05-20T23:47:07.686Z,97505.22
2023-05-20T23:49:41.600Z,97509.59
2023-05-20T23:52:41.339Z,97505.03
2023-05-20T23:55:15.167Z,97497.91
2023-05-20T23:57:49.718Z,97495.28
